Nevada City, CA (95959)

5:27 PM PST on January 23, 2017 (GMT -0800)
Willow Valley Lodge | | Change Station
Active Advisory: Hydrologic Statement

Elev 2563 ft 39.27 °N, 121.01 °W | Updated 12 seconds ago

Rain
Rain
35.6 °F
Feels Like 36 °F
N
0.0
Wind Variable Wind from WSW
Gusts 0.0 mph

Today
High -- | Low -- °F
--% Chance of Precip.
Yesterday
High -- | Low -- °F
Precip. -- in
Pressure 29.79 in
Visibility 0.5 miles
Clouds Overcast 200 ft
Windchill 36 °F
Dew Point 33 °F
Humidity 91%
Rainfall 0.39 in
Snow Depth Not available.
7:17 AM 5:14 PM
Waning Crescent, 15% visible
METAR KGOO 240115Z AUTO 14004KT 1/2SM OVC002 00/00 A2979 RMK AO1
Pressure 29.79 in
Visibility 0.5 miles
Clouds Overcast 200 ft
Windchill 36 °F
Dew Point 33 °F
Humidity 91%
Rainfall 0.39 in
Snow Depth Not available.
7:17 AM 5:14 PM
Waning Crescent, 15% visible
METAR KGOO 240115Z AUTO 14004KT 1/2SM OVC002 00/00 A2979 RMK AO1

Get Your Daily Forecast Email!

Thanks for signing up!

Be on the lookout for a verification email in your inbox.

You'll start receiving the daily forecast at 8 AM.

×

10-Day Weather Forecast

Almanac

Astronomy

Jan. 23, 2017 Rise Set
Actual Time
Civil Twilight
Nautical Twilight
Astronomical Twilight
Moon
Length of Visible Light
Length of Day
Tomorrow will be .
, % of the Moon is Illuminated

Today's Extremes

State Highs State Lows

Community

WunderPhotos

Upload Photos

1,962,540 photos uploaded!

WunderBlog® & News

Nearby

Air Quality

  Air Quality AQ Index Pollutant
Not available.

Snow Depth

Station Depth Elevation

Earthquake Activity

City Distance Mag. Time & Date
Minimum magnitude displayed is 2.5.

Coastal Water Temperatures

Place Temperature

Stations

Nearby Weather Stations

Station Location Temp. Windchill Dew Point Humidity Wind Precip. Elev Updated Type
                   

Watches & Warnings

Hydrologic Statement
Issued: 3:14 PM PST Jan. 23, 2017 – National Weather Service

Forecast information for
Bear River above Wheatland.
* At 2:45 PM Monday the stage was 8.4 feet.
* Forecast to recede to near 7.0 ft tomorrow afternoon then forecast
to fluctuate near 7.0 ft thru tomorrow afternoon.
* Flood stage 24.0 ft
* monitor stage 16.0 ft


&&

Lat... Lon 3899 12158 3903 12142 3897 12133 3882 12161